Time;durP1;ratioP1;P1;durP2;ratioP2;P2;SDS_P1;SDS_P2;PMS_P1;PMS_P2;Temp;Humidity;BMP_temperature;BMP_pressure;BME280_temperature;BME280_humidity;BME280_pressure;Samples;Min_cycle;Max_cycle;Signal;HPM_P1;HPM_P2
2021/03/13 00:00:09;;;;;;;14.85;11.05;;;;;;;-2.66;83.75;99883.95;1787811;80;21497;-69
2021/03/13 00:02:42;;;;;;;;;;;;;;;-2.65;83.74;99877.88;1789418;80;21117;-70
2021/03/13 00:05:12;;;;;;;11.97;7.00;;;;;;;-2.64;83.76;99881.70;1787213;78;20214;-69
2021/03/13 00:07:40;;;;;;;10.43;7.60;;;;;;;-2.63;83.77;99883.39;1787917;80;21963;-69
2021/03/13 00:10:10;;;;;;;8.78;6.03;;;;;;;-2.62;83.80;99885.07;1787647;80;21137;-70
2021/03/13 00:12:39;;;;;;;13.85;8.75;;;;;;;-2.61;83.82;99880.33;1787962;80;21122;-69
2021/03/13 00:15:08;;;;;;;15.43;8.53;;;;;;;-2.58;83.85;99878.08;1787797;78;21127;-69
2021/03/13 00:17:35;;;;;;;17.52;9.90;;;;;;;-2.56;83.85;99887.07;1787771;80;21073;-71
2021/03/13 00:20:05;;;;;;;17.23;10.28;;;;;;;-2.56;83.85;99881.45;1779022;80;22065;-69
2021/03/13 00:22:33;;;;;;;16.07;10.00;;;;;;;-2.55;83.85;99887.02;1787692;80;21085;-68
2021/03/13 00:25:00;;;;;;;15.00;8.95;;;;;;;-2.54;83.90;99884.82;1787557;78;21126;-68
2021/03/13 00:27:27;;;;;;;13.85;7.72;;;;;;;-2.51;83.89;99891.63;1782001;80;21142;-68
2021/03/13 00:29:57;;;;;;;13.45;7.95;;;;;;;-2.50;83.88;99887.72;1785165;80;21211;-70
2021/03/13 00:32:24;;;;;;;10.82;7.15;;;;;;;-2.49;83.92;99882.94;1756709;81;21891;-69
2021/03/13 00:34:53;;;;;;;12.58;8.30;;;;;;;-2.48;83.94;99878.16;1785409;78;21061;-69
2021/03/13 00:37:20;;;;;;;10.50;6.55;;;;;;;-2.46;83.92;99873.77;1787626;80;21105;-69
2021/03/13 00:39:48;;;;;;;11.93;7.75;;;;;;;-2.44;83.94;99864.22;1738523;82;21610;-70
2021/03/13 00:42:16;;;;;;;10.72;7.20;;;;;;;-2.41;83.95;99870.59;1779389;80;21081;-68
2021/03/13 00:44:43;;;;;;;13.98;10.15;;;;;;;-2.41;83.94;99870.59;1773911;78;23580;-69
2021/03/13 00:47:10;;;;;;;16.48;9.90;;;;;;;-2.39;83.96;99879.14;1786211;80;21117;-69
2021/03/13 00:49:38;;;;;;;13.50;7.42;;;;;;;-2.37;83.95;99881.67;1785998;80;21426;-69
2021/03/13 00:52:07;;;;;;;9.43;7.17;;;;;;;-2.35;83.98;99877.28;1787984;80;21062;-70
2021/03/13 00:54:34;;;;;;;10.70;7.17;;;;;;;-2.34;83.99;99873.34;1780957;78;21046;-69
2021/03/13 00:57:03;;;;;;;11.70;7.45;;;;;;;-2.31;84.00;99872.42;1758364;80;21947;-68
2021/03/13 00:59:31;;;;;;;9.90;6.78;;;;;;;-2.29;83.99;99869.32;1752413;80;21537;-69
2021/03/13 01:02:01;;;;;;;13.35;7.85;;;;;;;-2.28;84.00;99869.72;1787965;80;21392;-69
2021/03/13 01:04:28;;;;;;;13.05;7.47;;;;;;;-2.26;84.04;99867.06;1763960;78;21575;-69
2021/03/13 01:06:56;;;;;;;11.60;7.75;;;;;;;-2.23;84.04;99872.13;1778073;80;21054;-69
2021/03/13 01:09:25;;;;;;;12.78;7.55;;;;;;;-2.23;84.09;99870.38;1773160;80;21876;-71
2021/03/13 01:11:52;;;;;;;10.03;7.28;;;;;;;-2.20;84.12;99881.09;1787508;80;21157;-70
2021/03/13 01:14:20;;;;;;;14.23;10.08;;;;;;;-2.17;84.11;99874.51;1788055;78;21323;-69
2021/03/13 01:16:48;;;;;;;14.35;9.43;;;;;;;-2.15;84.16;99870.12;1781114;80;21157;-69
2021/03/13 01:19:16;;;;;;;12.68;7.83;;;;;;;-2.12;84.14;99869.58;1768687;80;21057;-69
2021/03/13 01:21:45;;;;;;;12.00;8.80;;;;;;;-2.09;84.16;99875.09;1761438;80;22067;-68
2021/03/13 01:24:13;;;;;;;12.47;8.65;;;;;;;-2.07;84.15;99878.45;1781146;80;22447;-69
2021/03/13 01:26:42;;;;;;;15.28;9.95;;;;;;;-2.04;84.18;99883.06;1772536;80;21189;-69
2021/03/13 01:29:10;;;;;;;19.23;9.95;;;;;;;-2.00;84.18;99884.27;1757715;80;21577;-68
2021/03/13 01:31:48;;;;;;;16.93;10.18;;;;;;;-1.95;84.18;99883.64;1881710;76;27685;-69
2021/03/13 01:34:18;;;;;;;15.10;8.93;;;;;;;-1.95;84.23;99897.42;1829282;77;21049;-70
2021/03/13 01:36:47;;;;;;;15.32;9.20;;;;;;;-1.91;84.26;99895.13;1837807;77;24454;-69
2021/03/13 01:39:15;;;;;;;13.08;8.68;;;;;;;-1.87;84.28;99891.97;1851224;77;21065;-69
2021/03/13 01:41:43;;;;;;;14.60;10.10;;;;;;;-1.84;84.32;99901.75;1832066;77;21129;-69
2021/03/13 01:44:11;;;;;;;16.60;11.30;;;;;;;-1.80;84.37;99902.05;1846150;77;21521;-69
2021/03/13 01:46:39;;;;;;;17.40;10.45;;;;;;;-1.75;84.40;99905.30;1845378;77;21038;-69
2021/03/13 01:49:07;;;;;;;14.23;9.43;;;;;;;-1.71;84.42;99912.98;1845812;77;21885;-69
2021/03/13 01:51:35;;;;;;;18.25;11.28;;;;;;;-1.67;84.46;99911.95;1815015;77;21050;-69
2021/03/13 01:54:05;;;;;;;17.55;11.68;;;;;;;-1.64;84.49;99919.59;1822866;77;21066;-69
2021/03/13 01:56:33;;;;;;;15.98;10.98;;;;;;;-1.61;84.46;99914.33;1792311;79;21108;-69
2021/03/13 01:59:01;;;;;;;16.27;11.12;;;;;;;-1.58;84.49;99912.45;1775826;80;21113;-69
2021/03/13 02:01:31;;;;;;;17.07;10.95;;;;;;;-1.55;84.51;99914.08;1759915;81;22118;-69
2021/03/13 02:04:00;;;;;;;18.42;12.07;;;;;;;-1.53;84.50;99916.19;1805951;79;21528;-69
2021/03/13 02:06:27;;;;;;;21.62;13.90;;;;;;;-1.52;84.50;99920.47;1785378;80;21070;-69
2021/03/13 02:09:16;;;;;;;20.32;12.10;;;;;;;-1.50;84.50;99923.84;1798790;79;21113;-69
2021/03/13 02:12:24;;;;;;;20.65;12.78;;;;;;;-1.48;84.51;99929.80;1799388;78;21089;-69
2021/03/13 02:15:02;;;;;;;23.73;14.40;;;;;;;-1.46;84.50;99936.59;1796496;79;21899;-69
2021/03/13 02:17:40;;;;;;;14.25;10.72;;;;;;;-1.43;84.52;99933.08;1762041;79;21165;-69
2021/03/13 02:20:40;;;;;;;19.50;12.60;;;;;;;-1.40;84.53;99931.66;1781010;80;21053;-69
2021/03/13 02:23:10;;;;;;;17.20;10.80;;;;;;;-1.37;84.54;99939.75;1768953;80;21217;-69
2021/03/13 02:26:27;;;;;;;19.95;13.65;;;;;;;-1.33;84.52;99942.64;1753861;80;20934;-69
2021/03/13 02:29:30;;;;;;;22.17;15.32;;;;;;;-1.27;84.55;99932.03;1886706;74;29144;-69
2021/03/13 02:31:59;;;;;;;23.18;13.93;;;;;;;-1.28;84.53;99938.95;1832039;77;21107;-69
2021/03/13 02:34:31;;;;;;;22.30;13.48;;;;;;;-1.26;84.56;99937.14;1819551;77;21529;-69
2021/03/13 02:37:05;;;;;;;21.70;14.28;;;;;;;-1.23;84.54;99942.23;1816665;77;21130;-69
2021/03/13 02:39:34;;;;;;;20.45;14.35;;;;;;;-1.22;84.52;99934.84;1808990;77;21208;-69
2021/03/13 02:42:05;;;;;;;22.35;13.93;;;;;;;-1.18;84.53;99939.45;1849406;76;21053;-69
2021/03/13 02:44:34;;;;;;;19.40;12.33;;;;;;;-1.18;84.51;99936.41;1754800;79;21102;-69
2021/03/13 02:47:05;;;;;;;20.25;13.72;;;;;;;-1.16;84.50;99937.22;1811443;78;22085;-68
2021/03/13 02:49:37;;;;;;;20.97;14.70;;;;;;;-1.13;84.49;99936.70;1805486;79;21065;-70
2021/03/13 02:52:06;;;;;;;19.73;12.53;;;;;;;-1.14;84.46;99942.34;1824636;78;21165;-68
2021/03/13 02:54:37;;;;;;;21.85;14.43;;;;;;;-1.13;84.46;99947.06;1826175;78;21042;-68
2021/03/13 02:57:07;;;;;;;24.15;13.90;;;;;;;-1.14;84.46;99946.68;1793511;79;21069;-68
2021/03/13 02:59:36;;;;;;;25.60;15.20;;;;;;;-1.13;84.46;99945.32;1793744;79;22095;-71
2021/03/13 03:02:07;;;;;;;21.93;14.38;;;;;;;-1.11;84.47;99940.07;1811782;79;21566;-68
2021/03/13 03:04:37;;;;;;;23.05;15.50;;;;;;;-1.09;84.52;99939.09;1803113;79;21125;-69
2021/03/13 03:07:05;;;;;;;23.15;15.80;;;;;;;-1.04;84.54;99941.53;1814739;78;21533;-68
2021/03/13 03:09:34;;;;;;;26.12;16.70;;;;;;;-1.00;84.60;99945.68;1797484;78;21061;-68
2021/03/13 03:12:04;;;;;;;16.55;10.72;;;;;;;-0.97;84.60;99950.73;1802579;78;22203;-68
2021/03/13 03:14:32;;;;;;;22.32;15.13;;;;;;;-0.95;84.61;99958.87;1764392;80;21497;-68
2021/03/13 03:17:02;;;;;;;20.57;12.53;;;;;;;-0.91;84.61;99956.53;1795586;79;21464;-69
2021/03/13 03:19:32;;;;;;;25.12;16.55;;;;;;;-0.88;84.64;99972.41;1804987;79;21470;-69
2021/03/13 03:22:02;;;;;;;25.32;16.45;;;;;;;-0.85;84.68;99971.02;1814669;78;20934;-69
2021/03/13 03:24:30;;;;;;;23.25;15.95;;;;;;;-0.82;84.72;99976.08;1797283;78;22119;-68
2021/03/13 03:26:59;;;;;;;22.42;14.20;;;;;;;-0.79;84.73;99975.10;1813245;78;21588;-68
2021/03/13 03:29:28;;;;;;;26.87;16.10;;;;;;;-0.76;84.74;99973.71;1756162;81;21123;-68
2021/03/13 03:31:57;;;;;;;27.55;16.70;;;;;;;-0.74;84.75;99975.33;1759366;81;21201;-68
2021/03/13 03:34:25;;;;;;;22.00;14.40;;;;;;;-0.72;84.75;99960.55;1749206;81;21478;-69
2021/03/13 03:36:54;;;;;;;26.82;18.70;;;;;;;-0.69;84.80;99959.11;1779598;79;22127;-68
2021/03/13 03:39:21;;;;;;;27.65;18.52;;;;;;;-0.65;84.78;99962.00;1756985;81;21097;-68
2021/03/13 03:41:53;;;;;;;28.30;19.05;;;;;;;-0.63;84.79;99956.75;1782524;79;21146;-69
2021/03/13 03:44:25;;;;;;;23.00;14.73;;;;;;;-0.60;84.78;99963.09;1747089;81;21150;-69
2021/03/13 03:46:56;;;;;;;28.38;18.92;;;;;;;-0.58;84.79;99962.58;1778649;79;21224;-68
2021/03/13 03:49:25;;;;;;;24.87;15.58;;;;;;;-0.56;84.82;99959.95;1711285;81;22067;-68
2021/03/13 03:51:55;;;;;;;27.35;16.87;;;;;;;-0.54;84.83;99956.37;1778291;80;21086;-68
2021/03/13 03:54:23;;;;;;;25.02;15.83;;;;;;;-0.51;84.83;99961.43;1747757;81;21071;-68
2021/03/13 03:56:52;;;;;;;26.90;17.87;;;;;;;-0.49;84.82;99956.17;1785699;79;21106;-68
2021/03/13 03:59:20;;;;;;;25.02;17.02;;;;;;;-0.48;84.84;99957.44;1742504;81;21133;-68
2021/03/13 04:01:52;;;;;;;28.02;19.37;;;;;;;-0.46;84.84;99958.20;1778760;80;21840;-68
2021/03/13 04:04:22;;;;;;;27.30;18.07;;;;;;;-0.42;84.85;99961.52;1746559;81;21140;-68
2021/03/13 04:06:50;;;;;;;29.87;20.12;;;;;;;-0.42;84.84;99965.40;1750713;81;21581;-69
2021/03/13 04:09:20;;;;;;;31.62;20.02;;;;;;;-0.40;84.82;99968.77;1742716;81;21125;-68
2021/03/13 04:11:50;;;;;;;31.40;19.80;;;;;;;-0.38;84.81;99965.69;1786703;79;21134;-69
2021/03/13 04:14:18;;;;;;;29.37;20.23;;;;;;;-0.37;84.82;99964.78;1751454;81;21996;-69
2021/03/13 04:16:45;;;;;;;32.15;21.23;;;;;;;-0.36;84.79;99963.41;1713873;81;21102;-69
2021/03/13 04:19:13;;;;;;;29.67;18.40;;;;;;;-0.34;84.79;99966.78;1758561;80;21485;-69
2021/03/13 04:21:42;;;;;;;31.00;20.43;;;;;;;-0.32;84.81;99965.41;1749556;80;21157;-69
2021/03/13 04:24:12;;;;;;;30.35;20.70;;;;;;;-0.32;84.79;99966.25;1725236;81;21172;-70
2021/03/13 04:26:43;;;;;;;26.62;18.10;;;;;;;-0.30;84.78;99967.03;1741032;81;21949;-69
2021/03/13 04:29:11;;;;;;;34.38;22.32;;;;;;;-0.28;84.76;99974.78;1783123;79;21453;-69
2021/03/13 04:31:38;;;;;;;28.40;20.20;;;;;;;-0.25;84.76;99982.88;1822278;78;21118;-69
2021/03/13 04:34:06;;;;;;;24.30;16.42;;;;;;;-0.23;84.74;99979.77;1797155;79;21070;-69
2021/03/13 04:36:35;;;;;;;29.10;18.70;;;;;;;-0.22;84.73;99977.10;1791124;79;21144;-69
2021/03/13 04:39:06;;;;;;;31.02;22.52;;;;;;;-0.22;84.69;99982.29;1789970;78;21891;-69
2021/03/13 04:41:34;;;;;;;24.25;17.50;;;;;;;-0.20;84.68;99977.87;1771159;80;21070;-69
2021/03/13 04:44:01;;;;;;;26.62;19.65;;;;;;;-0.18;84.66;99981.27;1770152;78;21066;-70
2021/03/13 04:46:35;;;;;;;24.37;17.67;;;;;;;-0.16;84.65;99983.80;1805827;79;21109;-70
2021/03/13 04:49:04;;;;;;;;;;;;;;;-0.16;84.62;99972.13;1795424;80;21033;-69
2021/03/13 04:51:32;;;;;;;32.58;21.55;;;;;;;-0.15;84.64;99977.24;1794151;78;21890;-69
2021/03/13 04:53:59;;;;;;;27.15;18.10;;;;;;;-0.13;84.63;99975.88;1803155;79;21121;-69
2021/03/13 04:56:27;;;;;;;31.10;20.02;;;;;;;-0.12;84.59;99979.70;1778829;79;21178;-69
2021/03/13 04:58:54;;;;;;;26.77;19.42;;;;;;;-0.11;84.58;99985.73;1753860;80;21080;-69
2021/03/13 05:01:22;;;;;;;30.35;19.20;;;;;;;-0.10;84.55;99988.26;1800980;78;21106;-70
2021/03/13 05:03:49;;;;;;;25.43;18.32;;;;;;;-0.07;84.54;99993.34;1796582;78;22043;-69
2021/03/13 05:06:17;;;;;;;31.65;21.85;;;;;;;-0.05;84.51;99994.13;1806456;79;21146;-69
2021/03/13 05:08:45;;;;;;;30.48;21.97;;;;;;;-0.03;84.49;99998.78;1819908;78;21054;-69
2021/03/13 05:11:13;;;;;;;33.38;23.20;;;;;;;-0.01;84.46;100002.61;1793130;79;21073;-70
2021/03/13 05:13:40;;;;;;;32.05;21.45;;;;;;;0.02;84.42;100009.45;1799908;79;21553;-69
2021/03/13 05:16:07;;;;;;;30.27;21.17;;;;;;;0.02;84.40;100000.37;1793145;79;22145;-69
2021/03/13 05:18:35;;;;;;;30.95;22.52;;;;;;;0.03;84.37;100002.89;1807084;79;21086;-69
2021/03/13 05:21:03;;;;;;;28.02;19.92;;;;;;;0.04;84.34;100001.98;1794835;78;21505;-71
2021/03/13 05:23:31;;;;;;;24.18;16.65;;;;;;;0.07;84.30;100004.89;1802658;79;21121;-69
2021/03/13 05:25:58;;;;;;;28.90;21.55;;;;;;;0.08;84.29;100007.42;1793996;78;21105;-69
2021/03/13 05:28:25;;;;;;;29.10;19.32;;;;;;;0.10;84.27;100004.78;1792698;78;21952;-70
2021/03/13 05:30:53;;;;;;;31.07;21.27;;;;;;;0.11;84.23;100011.66;1792918;80;21094;-69
2021/03/13 05:33:20;;;;;;;30.37;22.20;;;;;;;0.13;84.20;100017.63;1799162;79;21585;-69
2021/03/13 05:35:48;;;;;;;31.37;21.75;;;;;;;0.13;84.17;100017.63;1805101;78;21117;-69
2021/03/13 05:38:15;;;;;;;25.37;17.62;;;;;;;0.15;84.14;100024.89;1783962;79;21057;-69
2021/03/13 05:40:42;;;;;;;30.25;21.35;;;;;;;0.15;84.11;100027.49;1778496;79;22972;-70
2021/03/13 05:43:13;;;;;;;30.70;20.97;;;;;;;0.14;84.05;100032.30;1793919;78;21069;-69
2021/03/13 05:45:41;;;;;;;29.95;21.15;;;;;;;0.14;84.02;100031.00;1781156;79;21564;-69
2021/03/13 05:48:09;;;;;;;35.98;22.48;;;;;;;0.13;84.02;100028.86;1778637;80;21158;-69
2021/03/13 05:50:37;;;;;;;32.70;23.35;;;;;;;0.14;83.99;100025.80;1804692;79;21483;-68
2021/03/13 05:53:04;;;;;;;28.30;21.27;;;;;;;0.14;83.93;100042.69;1792893;80;23391;-70
2021/03/13 05:55:31;;;;;;;29.70;20.77;;;;;;;0.16;83.91;100046.05;1794066;79;21130;-70
2021/03/13 05:58:01;;;;;;;31.87;22.58;;;;;;;0.16;83.87;100045.60;1793039;80;21109;-69
2021/03/13 06:00:29;;;;;;;31.05;21.25;;;;;;;0.17;83.86;100058.13;1804051;79;21112;-69
2021/03/13 06:02:57;;;;;;;29.42;21.07;;;;;;;0.17;83.81;100064.63;1788160;79;21327;-69
2021/03/13 06:05:25;;;;;;;34.65;23.30;;;;;;;0.17;83.79;100067.22;1789468;79;23053;-70
2021/03/13 06:08:01;;;;;;;34.45;24.15;;;;;;;0.18;83.78;100073.64;1801058;79;21070;-69
2021/03/13 06:10:29;;;;;;;31.68;21.75;;;;;;;0.20;83.75;100077.50;1792834;80;21120;-69
2021/03/13 06:12:59;;;;;;;29.00;19.60;;;;;;;0.24;83.75;100079.05;1803867;79;21124;-69
2021/03/13 06:15:26;;;;;;;39.27;23.65;;;;;;;0.26;83.71;100079.83;1807409;79;21128;-69
2021/03/13 06:18:03;;;;;;;31.90;22.02;;;;;;;0.30;83.68;100085.76;1802861;79;22045;-70
2021/03/13 06:20:36;;;;;;;34.03;24.30;;;;;;;0.33;83.66;100091.66;1807804;78;21122;-69
2021/03/13 06:23:12;;;;;;;32.75;20.95;;;;;;;0.38;83.63;100097.48;1793934;78;21055;-69
2021/03/13 06:25:40;;;;;;;31.97;23.27;;;;;;;0.44;83.58;100097.23;1778913;79;21126;-69
2021/03/13 06:28:22;;;;;;;40.55;26.73;;;;;;;0.49;83.55;100099.66;1790318;79;21146;-70
2021/03/13 06:30:51;;;;;;;48.13;31.68;;;;;;;0.52;83.50;100091.73;1789077;79;22503;-69
2021/03/13 06:33:32;;;;;;;51.83;32.75;;;;;;;0.57;83.42;100095.80;1794436;79;21137;-69
2021/03/13 06:36:02;;;;;;;43.25;29.15;;;;;;;0.62;83.37;100090.88;1825766;78;21113;-68
2021/03/13 06:38:34;;;;;;;33.55;24.25;;;;;;;0.67;83.29;100099.30;1797050;79;21110;-69
2021/03/13 06:41:20;;;;;;;35.78;25.10;;;;;;;0.73;83.23;100104.25;1799068;78;21126;-69
2021/03/13 06:43:50;;;;;;;36.30;24.40;;;;;;;0.79;83.17;100091.84;1807025;78;22036;-69
2021/03/13 06:46:20;;;;;;;32.10;22.95;;;;;;;0.89;83.07;100093.58;1802728;78;21644;-68
2021/03/13 06:48:50;;;;;;;40.38;28.20;;;;;;;0.99;82.98;100096.62;1796778;78;21149;-68
2021/03/13 06:51:22;;;;;;;47.70;31.90;;;;;;;1.04;82.83;100099.84;1806660;78;21187;-68
2021/03/13 06:54:11;;;;;;;38.67;26.60;;;;;;;1.06;82.60;100094.98;1793651;78;21153;-68
2021/03/13 06:56:46;;;;;;;49.03;33.23;;;;;;;1.09;82.47;100093.99;1799098;79;22810;-68
2021/03/13 06:59:36;;;;;;;39.78;28.50;;;;;;;1.13;82.35;100095.07;1824269;78;21077;-68
2021/03/13 07:02:09;;;;;;;47.93;31.75;;;;;;;1.23;82.26;100103.77;1821540;78;21611;-68
2021/03/13 07:04:42;;;;;;;50.98;36.03;;;;;;;1.29;82.10;100101.73;1803504;79;21470;-68
2021/03/13 07:07:11;;;;;;;51.70;35.38;;;;;;;1.31;81.89;100098.59;1793084;80;21133;-68
2021/03/13 07:09:54;;;;;;;51.30;36.05;;;;;;;1.39;81.77;100104.77;1794992;78;22067;-68
2021/03/13 07:12:32;;;;;;;59.65;39.83;;;;;;;1.47;81.66;100105.26;1801575;79;21487;-68
2021/03/13 07:15:23;;;;;;;59.30;39.65;;;;;;;1.56;81.49;100113.94;1805837;79;21121;-68
2021/03/13 07:17:57;;;;;;;45.23;29.80;;;;;;;1.61;81.26;100110.65;1796352;78;21581;-67
2021/03/13 07:20:31;;;;;;;54.38;36.88;;;;;;;1.66;81.01;100111.30;1795967;79;21046;-68
2021/03/13 07:23:01;;;;;;;61.25;41.42;;;;;;;1.70;80.77;100115.89;1777937;80;22059;-68
2021/03/13 07:25:28;;;;;;;43.98;29.82;;;;;;;1.75;80.57;100115.69;1787475;79;21113;-68
2021/03/13 07:28:02;;;;;;;53.87;38.73;;;;;;;1.80;80.41;100108.48;1778230;80;21118;-68
2021/03/13 07:30:32;;;;;;;42.38;28.20;;;;;;;1.88;80.28;100110.27;1798686;79;21110;-68
2021/03/13 07:33:05;;;;;;;40.15;26.00;;;;;;;1.98;80.12;100112.81;1799749;78;21533;-69
2021/03/13 07:35:40;;;;;;;34.98;24.55;;;;;;;2.09;79.95;100120.95;1804826;78;22085;-68
2021/03/13 07:38:12;;;;;;;25.85;19.12;;;;;;;2.20;79.76;100110.84;1797371;78;25657;-68
2021/03/13 07:40:46;;;;;;;27.90;22.00;;;;;;;2.31;79.53;100114.22;1793163;78;21112;-69
2021/03/13 07:43:17;;;;;;;30.05;21.90;;;;;;;2.38;79.25;100109.55;1793210;79;21070;-70
2021/03/13 07:45:47;;;;;;;35.08;24.98;;;;;;;2.44;78.95;100114.48;1789130;80;21146;-70
2021/03/13 07:48:15;;;;;;;35.52;25.48;;;;;;;2.49;78.70;100112.47;1800511;78;22882;-69
2021/03/13 07:50:48;;;;;;;94.45;63.48;;;;;;;2.53;78.42;100112.72;1793280;80;21371;-69
2021/03/13 07:53:16;;;;;;;29.17;21.47;;;;;;;2.60;78.23;100111.46;1793803;78;21142;-69
2021/03/13 07:55:51;;;;;;;43.25;30.85;;;;;;;2.65;77.89;100112.09;1779188;78;21108;-69
2021/03/13 07:58:20;;;;;;;32.98;21.77;;;;;;;2.69;77.60;100108.38;1773069;79;21656;-70
2021/03/13 08:00:48;;;;;;;39.33;28.30;;;;;;;2.71;77.32;100109.64;1796825;79;22131;-70
2021/03/13 08:03:38;;;;;;;32.00;22.58;;;;;;;2.74;77.11;100115.99;1786356;80;21074;-69
2021/03/13 08:06:08;;;;;;;35.73;24.32;;;;;;;2.81;76.96;100115.61;1802990;78;21132;-69
2021/03/13 08:08:47;;;;;;;41.85;29.10;;;;;;;2.85;76.62;100117.12;1819268;78;21034;-69
2021/03/13 08:11:20;;;;;;;42.55;28.75;;;;;;;2.91;76.49;100118.58;1793411;80;21057;-68
2021/03/13 08:13:56;;;;;;;43.90;30.48;;;;;;;3.00;76.20;100120.71;1777557;80;22116;-68
2021/03/13 08:16:36;;;;;;;40.12;28.30;;;;;;;3.06;75.93;100113.84;1793278;78;21502;-69
2021/03/13 08:19:27;;;;;;;29.02;21.20;;;;;;;3.15;75.69;100117.28;1761970;81;21335;-68
2021/03/13 08:22:15;;;;;;;42.85;30.43;;;;;;;3.25;75.54;100112.41;1803424;78;21489;-68
2021/03/13 08:24:47;;;;;;;45.55;30.60;;;;;;;3.36;75.03;100117.89;1805607;78;21065;-69
2021/03/13 08:27:25;;;;;;;38.88;26.77;;;;;;;3.41;74.77;100113.28;1772535;79;22985;-69
2021/03/13 08:29:55;;;;;;;38.48;28.92;;;;;;;3.50;74.57;100112.41;1790881;78;21483;-68
2021/03/13 08:33:03;;;;;;;50.88;37.38;;;;;;;3.54;74.24;100113.92;1766076;80;21483;-68
2021/03/13 08:35:46;;;;;;;37.42;28.57;;;;;;;3.57;73.99;100113.73;1780672;79;21122;-69
2021/03/13 08:38:17;;;;;;;39.27;27.00;;;;;;;3.63;73.73;100110.80;1755998;80;21355;-68
2021/03/13 08:40:50;;;;;;;37.10;27.05;;;;;;;3.68;73.40;100116.17;1780419;79;22126;-73
2021/03/13 08:43:39;;;;;;;30.45;23.30;;;;;;;3.71;73.15;100115.15;1778577;80;21168;-71
2021/03/13 08:46:42;;;;;;;29.65;22.98;;;;;;;3.74;73.05;100115.81;1778891;79;21046;-70
2021/03/13 08:49:13;;;;;;;28.35;21.37;;;;;;;3.87;72.97;100111.23;1779176;79;21150;-72
2021/03/13 08:51:40;;;;;;;35.23;26.00;;;;;;;3.99;72.60;100110.07;1779077;79;21568;-71
2021/03/13 08:54:08;;;;;;;26.27;19.17;;;;;;;4.01;72.39;100108.67;1754114;79;22574;-72
2021/03/13 08:56:43;;;;;;;25.85;19.90;;;;;;;4.09;72.20;100112.16;1755117;80;21067;-70
2021/03/13 08:59:19;;;;;;;25.45;19.23;;;;;;;4.13;71.90;100115.81;1751994;81;21109;-68
2021/03/13 09:02:12;;;;;;;29.95;21.85;;;;;;;4.17;71.74;100117.34;1771742;80;21074;-70
2021/03/13 09:04:58;;;;;;;33.45;25.80;;;;;;;4.24;71.41;100115.19;1867814;76;29135;-73
2021/03/13 09:07:25;;;;;;;29.23;22.55;;;;;;;4.24;71.30;100119.11;1844120;77;21354;-69
2021/03/13 09:09:56;;;;;;;29.63;21.50;;;;;;;4.29;71.11;100121.02;1847395;77;22061;-69
2021/03/13 09:12:27;;;;;;;27.82;21.93;;;;;;;4.30;70.98;100115.69;1813180;77;21055;-69
2021/03/13 09:14:57;;;;;;;26.33;19.40;;;;;;;4.30;70.78;100117.47;1829074;77;21067;-69
2021/03/13 09:17:28;;;;;;;27.77;20.77;;;;;;;4.28;70.71;100120.17;1816332;79;21095;-69
2021/03/13 09:22:43;;;;;;;32.93;24.77;;;;;;;4.30;70.42;100112.23;1791514;79;22078;-68
2021/03/13 09:25:14;;;;;;;28.12;22.37;;;;;;;4.33;70.50;100122.51;1814177;79;21165;-67
2021/03/13 09:27:42;;;;;;;32.45;24.20;;;;;;;4.40;70.36;100122.54;1813600;78;21059;-67
2021/03/13 09:30:21;;;;;;;31.05;23.52;;;;;;;4.46;70.25;100116.97;1814943;77;21165;-69
2021/03/13 09:32:52;;;;;;;31.82;24.75;;;;;;;4.54;70.07;100119.98;1813033;77;21059;-68
2021/03/13 09:35:23;;;;;;;37.40;26.75;;;;;;;4.63;69.82;100126.88;1806955;78;22063;-68
2021/03/13 09:37:50;;;;;;;36.00;25.12;;;;;;;4.69;69.57;100128.69;1821068;78;21511;-68
2021/03/13 09:40:23;;;;;;;31.07;20.80;;;;;;;4.70;69.27;100130.36;1815145;77;21068;-69
2021/03/13 09:42:51;;;;;;;26.77;19.98;;;;;;;4.71;69.14;100131.20;1815538;78;21126;-69
2021/03/13 09:45:22;;;;;;;27.17;20.62;;;;;;;4.73;69.01;100133.26;1811130;79;21346;-67
2021/03/13 09:47:58;;;;;;;23.92;18.73;;;;;;;4.75;68.88;100132.73;1814461;78;22090;-68
2021/03/13 09:50:35;;;;;;;28.83;20.68;;;;;;;4.81;68.84;100127.11;1811516;79;21119;-69
2021/03/13 09:53:06;;;;;;;30.88;23.55;;;;;;;4.93;68.80;100130.33;1795314;78;21186;-69
2021/03/13 09:55:34;;;;;;;28.07;20.25;;;;;;;5.07;68.66;100122.47;1796220;78;21469;-69
2021/03/13 09:58:04;;;;;;;25.52;19.65;;;;;;;5.28;68.45;100121.62;1809132;78;21483;-72
2021/03/13 10:00:35;;;;;;;29.65;21.20;;;;;;;5.44;68.11;100119.75;1809793;78;22054;-72
2021/03/13 10:03:11;;;;;;;29.98;22.40;;;;;;;5.60;67.29;100120.11;1808690;78;21514;-72
2021/03/13 10:05:39;;;;;;;29.05;22.32;;;;;;;5.70;67.13;100122.05;1806132;78;21479;-70
2021/03/13 10:08:14;;;;;;;24.00;19.87;;;;;;;5.86;66.56;100113.20;1807603;78;21115;-72
2021/03/13 10:10:47;;;;;;;25.95;19.37;;;;;;;5.93;66.29;100111.44;1782156;79;21052;-71
2021/03/13 10:13:17;;;;;;;28.87;21.45;;;;;;;6.02;65.51;100116.55;1811729;79;22040;-73
2021/03/13 10:15:45;;;;;;;27.45;20.08;;;;;;;5.98;65.44;100120.30;1814804;78;21213;-71
2021/03/13 10:18:20;;;;;;;23.92;20.25;;;;;;;6.05;65.61;100118.97;1793749;79;21167;-71
2021/03/13 10:20:53;;;;;;;23.77;18.95;;;;;;;6.18;65.13;100118.56;1784132;79;21134;-70
2021/03/13 10:23:23;;;;;;;30.12;21.95;;;;;;;6.32;65.00;100120.27;1805694;79;21460;-70
2021/03/13 10:25:59;;;;;;;27.95;21.55;;;;;;;6.43;64.36;100117.77;1815364;79;22122;-70
2021/03/13 10:28:30;;;;;;;27.58;20.43;;;;;;;6.53;64.47;100124.09;1817484;77;21302;-71
2021/03/13 10:31:10;;;;;;;29.12;21.35;;;;;;;6.71;63.97;100117.25;1811968;78;21130;-73
2021/03/13 10:33:41;;;;;;;30.60;21.57;;;;;;;6.85;63.29;100127.20;1792022;79;21166;-73
2021/03/13 10:36:10;;;;;;;23.87;18.95;;;;;;;7.00;63.15;100127.92;1804133;79;21547;-72
2021/03/13 10:38:39;;;;;;;26.27;19.00;;;;;;;7.20;62.93;100121.30;1811866;79;22469;-71
2021/03/13 10:41:09;;;;;;;26.68;20.65;;;;;;;7.32;62.54;100128.31;1786604;77;21194;-73
2021/03/13 10:43:40;;;;;;;28.65;20.27;;;;;;;7.43;62.20;100126.24;1812613;78;21618;-74
2021/03/13 10:46:22;;;;;;;20.50;16.23;;;;;;;7.41;61.45;100123.73;1803062;79;21210;-72
2021/03/13 10:49:01;;;;;;;24.80;18.80;;;;;;;7.31;61.61;100117.44;1810511;79;21619;-71
2021/03/13 10:51:41;;;;;;;19.52;15.90;;;;;;;7.34;61.58;100119.03;1810976;79;21249;-73
2021/03/13 10:54:21;;;;;;;20.37;16.93;;;;;;;7.49;61.20;100112.68;1800106;79;21194;-72
2021/03/13 10:56:50;;;;;;;20.77;17.05;;;;;;;7.55;60.97;100110.95;1807072;78;21423;-71
2021/03/13 10:59:34;;;;;;;25.20;19.70;;;;;;;7.63;60.96;100101.20;1815722;78;21118;-72
2021/03/13 11:02:03;;;;;;;19.90;17.10;;;;;;;7.81;61.01;100109.53;1737011;82;21176;-73
2021/03/13 11:04:31;;;;;;;22.98;19.25;;;;;;;8.05;60.52;100109.09;1807049;78;22050;-69
2021/03/13 11:06:59;;;;;;;20.70;16.17;;;;;;;8.27;60.32;100107.02;1791018;78;21598;-80
2021/03/13 11:09:29;;;;;;;19.12;15.98;;;;;;;8.49;59.50;100106.28;1811976;79;21139;-72
2021/03/13 11:11:57;;;;;;;19.50;15.60;;;;;;;8.65;58.91;100107.30;1812765;78;21609;-71
2021/03/13 11:14:24;;;;;;;18.17;15.13;;;;;;;8.73;58.29;100111.52;1811399;79;21456;-72
2021/03/13 11:16:52;;;;;;;18.00;15.03;;;;;;;8.76;57.53;100108.16;1814204;79;22072;-70
2021/03/13 11:19:24;;;;;;;18.73;14.87;;;;;;;8.71;57.28;100101.58;1809483;79;21145;-70
2021/03/13 11:21:49;;;;;;;16.75;13.32;;;;;;;8.70;57.44;100103.86;1803275;78;21205;-71
2021/03/13 11:24:18;;;;;;;18.45;15.35;;;;;;;8.69;57.24;100103.50;1812176;78;21162;-70
2021/03/13 11:26:46;;;;;;;19.23;14.98;;;;;;;8.58;57.13;100097.22;1796150;78;21162;-69
2021/03/13 11:29:14;;;;;;;23.47;16.97;;;;;;;8.54;57.37;100096.27;1812302;77;22049;-69
2021/03/13 11:31:42;;;;;;;18.85;14.47;;;;;;;8.55;57.72;100091.36;1817601;77;21184;-69
2021/03/13 11:34:10;;;;;;;19.82;15.18;;;;;;;8.54;57.68;100091.84;1815411;78;21409;-69
2021/03/13 11:36:38;;;;;;;20.80;17.50;;;;;;;8.61;58.23;100086.96;1815780;78;21107;-69
2021/03/13 11:39:07;;;;;;;21.07;16.50;;;;;;;8.78;58.07;100089.16;1813601;78;21153;-69
2021/03/13 11:41:35;;;;;;;20.43;17.30;;;;;;;8.82;57.24;100082.69;1779928;79;21825;-70